Tiempo atmosférico en la estación meteorológica de San Fernando, Cádiz (28 m.)



Fecha
DESCASC
Temp. máxima en grados centígrados (hora)
DESCASC
Temp. mínima en grados centígrados (hora)
DESCASC
Temp. media en grados centígrados
DESCASC
Racha de viento máxima en m/sg (hora)
DESCASC
Velocidad máxima media en intervalos de 10 minutos(hora)
DESCASC
Precipitaciones diarias en mm
DESCASC
Precipitaciones de 00:00 a 06:00 en mm
DESCASC
Precipitaciones de 06:00 a 12:00 en mm
DESCASC
Precipitaciones de 12:00 a 18:00 en mm
DESCASC
Precipitaciones de 18:00 a 24:00 en mm
DESCASC
19-09-2019 24.3 (13:40) 18.2 (07:30) 21.3 6.39 (15:40) 3.89 (16:40) 0 0 0 0 0
18-09-2019 24.3 (14:10) 19.8 (08:00) 22 7.22 (16:40) 4.72 (16:40) 0 0 0 0 0
17-09-2019 28.4 (12:20) 20.7 (00:00) 24.6 7.78 (08:10) 4.72 (14:10) 0 0 0 0 0
16-09-2019 25.4 (16:10) 19.3 (00:00) 22.3 6.39 (15:50) 4.17 (15:50) 0.1 0 0.1 0 0
15-09-2019 25.1 (16:40) 21.1 (00:00) 23.1 6.94 (14:00) 3.89 (14:10) 0 0 0 0 0
14-09-2019 30.5 (14:00) 20.7 (00:00) 25.6 9.72 (11:00) 5.28 (15:50) 0 0 0 0 0
13-09-2019 30.8 (13:50) 19.5 (00:00) 25.1 11.67 (16:40) 6.11 (16:30) 0 0 0 0 0
12-09-2019 30.1 (16:20) 18.6 (00:00) 24.4 11.11 (19:20) 5.28 (19:10) 0 0 0 0 0
11-09-2019 29.4 (18:50) 16.9 (00:00) 23.1 12.78 (18:20) 5.56 (18:20) 0 0 0 0 0
10-09-2019 24.4 (00:00) 18.8 (08:30) 21.6 12.5 (14:40) 7.5 (13:30) 0 0 0 0 0
09-09-2019 27.1 (12:20) 20.9 (08:20) 24 8.33 (23:40) 5.28 (17:10) 0 0 0 0 0
08-09-2019 31.8 (16:10) 23.1 (00:00) 27.4 11.94 (00:10) 6.39 (00:40) 0 0 0 0 0
07-09-2019 32.6 (14:40) 24.1 (00:00) 28.3 16.39 (15:10) 7.5 (16:20) 0 0 0 0 0
06-09-2019 34.3 (16:30) 24.3 (00:00) 29.3 13.89 (12:20) 7.5 (13:10) 0 0 0 0 0
05-09-2019 28.2 (15:40) 22.5 (00:00) 25.4 8.89 (23:59) 4.17 (22:50) 0 0 0 0 0
04-09-2019 33.8 (12:10) 23.9 (00:00) 28.8 11.11 (02:10) 5.56 (01:50) 0 0 0 0 0
03-09-2019 36.4 (16:50) 23.8 (00:00) 30.1 11.94 (15:00) 6.11 (23:10) 0 0 0 0 0
02-09-2019 34.4 (18:00) 22.1 (00:00) 28.3 13.61 (21:00) 6.39 (23:50) 0 0 0 0 0
01-09-2019 27.6 (16:20) 21.2 (00:00) 24.4 6.67 (13:40) 3.89 (15:00) 0 0 0 0 0
31-08-2019 34.6 (16:20) 23.6 (00:00) 29.1 9.72 (15:40) 5 (15:20) 0 0 0 0 0
30-08-2019 31.9 (11:40) 23.4 (00:00) 27.6 8.06 (00:40) 4.17 (07:10) 0 0 0 0 0
29-08-2019 35.8 (14:30) 24.1 (00:00) 29.9 12.22 (11:40) 6.39 (11:30) 0 0 0 0 0
28-08-2019 31 (11:50) 20.2 (00:00) 25.6 6.67 (16:20) 4.72 (16:10) 0 0 0 0 0
27-08-2019 25.3 (15:50) 20.5 (00:00) 22.9 8.06 (13:50) 4.72 (17:10) 0 0 0 0 0
26-08-2019 25.5 (14:30) 21.1 (00:00) 23.3 9.72 (07:40) 4.72 (17:50) 0 0 0 0 0
25-08-2019 34.4 (16:00) 22.7 (00:00) 28.6 12.5 (12:30) 6.11 (13:20) 0 0 0 0 0
24-08-2019 34.9 (16:00) 24.1 (00:00) 29.5 12.5 (18:50) 6.39 (17:00) 0 0 0 0 0
23-08-2019 33.3 (15:10) 24.2 (00:00) 28.8 17.22 (12:50) 8.89 (14:20) 0 0 0 0 0

Gráficas

Temp. máximas Temp. mínimas Temp. medias Precipitaciones Rachas de viento máximas Velocidades máximas media en intervalos de 10 minutos

Datos horarios

Fecha y hora oficial Temperatura (ºC) Velocidad del viento (km/h) Dirección del viento Racha (km/h) Dirección de racha Precipitación (mm) Presión (hPa) Tendencia (hPa) Humedad (%)
2019-09-21 23:00:00 22.2 6 Sudoeste 12 Sudoeste 0 1011.9 1.4 86
2019-09-21 22:00:00 21.9 4 Sur 15 Sudoeste 0 1011.2 0.4 86
2019-09-21 21:00:00 22.1 7 Sudoeste 16 Sudoeste 0 1010.7 -0.1 86
2019-09-21 20:00:00 22.3 5 Sudoeste 15 Sudoeste 0 1010.5 0.1 85
2019-09-21 19:00:00 22.3 11 Oeste 23 Oeste 0 1010.8 0 84
2019-09-21 18:00:00 22.4 14 Oeste 22 Oeste 0 1010.8 -0.3 82
2019-09-21 17:00:00 22.5 12 Sudoeste 23 Sudoeste 0 1010.4 -0.9 79
2019-09-21 16:00:00 22.6 10 Sudoeste 25 Sudoeste 0 1010.8 -1.2 76
2019-09-21 15:00:00 23.8 12 Sudoeste 24 Sudoeste 0 1011.1 -0.9 69
2019-09-21 14:00:00 25.4 9 Sur 20 Sur 0 1011.3 -0.6 67
2019-09-21 13:00:00 23.2 9 Sudoeste 19 Sur 0 1012 0.8 73
2019-09-21 12:00:00 23.7 11 Sur 20 Sur 0 1012 1.3 72
2019-09-21 11:00:00 22.1 3 Sur 11 Sudeste 0 1011.9 1.9 79
2019-09-21 10:00:00 20.7 4 Sudeste 10 Sur 0 1011.2 1.2 83
2019-09-21 09:00:00 20 4 Sudeste 10 Sudeste 0 1010.7 0.7 86
2019-09-21 08:00:00 19.7 4 Sudeste 10 Sudeste 0 1010 -0.4 85
2019-09-21 07:00:00 20 4 Sudeste 8 Sudeste 0 1010 -0.5 84
2019-09-21 06:00:00 20.2 0 Calma 9 Sudoeste 0 1010 -0.8 82
2019-09-21 05:00:00 20.2 3 Sudoeste 7 Sudoeste 0 1010.4 -0.8 81
2019-09-21 04:00:00 20.1 3 Sudoeste 11 Sudoeste 0 1010.5 -0.9 80
2019-09-21 03:00:00 20.4 3 Sudoeste 8 Sudoeste 0 1010.8 -0.9 80
2019-09-21 02:00:00 20.7 3 Sudoeste 8 Sudoeste 0 1011.2 -0.6 82
2019-09-21 01:00:00 20.8 5 Oeste 13 Oeste 0 1011.4 0 82
2019-09-21 00:00:00 21.1 9 Oeste 16 Oeste 0 1011.7 1.1 82
2019-09-20 23:00:00 21.3 11 Oeste 19 Oeste 0 1011.8 1.2 82
2019-09-20 22:00:00 21.2 12 Oeste 18 Oeste 0 1011.4 0.7 82
2019-09-20 21:00:00 21.4 8 Sudoeste 13 Sudoeste 0 1010.6 0.3 83
2019-09-20 20:00:00 22.4 7 Oeste 17 Oeste 0 1010.6 0.1 80
2019-09-20 19:00:00 22.7 13 Oeste 23 Oeste 0 1010.7 -0.2 76
2019-09-20 18:00:00 23 15 Oeste 28 Oeste 0 1010.3 -1.1 74
2019-09-20 17:00:00 22.7 14 Oeste 26 Oeste 0 1010.5 -1 76
2019-09-20 16:00:00 23.3 12 Sudoeste 27 Sudoeste 0 1010.9 -1 72
2019-09-20 15:00:00 23.8 12 Sudoeste 23 Sudoeste 0 1011.4 -0.5 67
2019-09-20 14:00:00 23.6 9 Sudoeste 24 Sur 0 1011.5 -0.3 73
2019-09-20 13:00:00 23.8 12 Sur 26 Sur 0 1011.9 0.5 71
2019-09-20 12:00:00 22.7 11 Sur 24 Sur 0 1011.9 0.9 80
2019-09-20 11:00:00 22.3 13 Sur 22 Sur 0 1011.8 1.1 79
2019-09-20 10:00:00 21.5 6 Sudeste 15 Sudeste 0 1011.4 1 83
2019-09-20 09:00:00 20.3 3 Sudeste 12 Sur 0 1011 0.3 83
2019-09-20 08:00:00 19.8 0 Calma 8 Sur 0 1010.7 -0.3 82
2019-09-20 07:00:00 19.4 3 Sudeste 11 Sudeste 0 1010.4 -0.9 83
2019-09-20 06:00:00 19.6 5 Sudeste 10 Sudeste 0 1010.7 -1 85
2019-09-20 05:00:00 19.5 6 Sudeste 11 Sudeste 0 1011 -1 86
2019-09-20 04:00:00 19.6 5 Sudeste 10 Sudeste 0 1011.3 -0.8 85
2019-09-20 03:00:00 19.8 5 Sudeste 9 Sudeste 0 1011.7 -0.7 84
2019-09-20 02:00:00 21.1 3 Sudeste 6 Sudeste 0 1012 -0.4 80
2019-09-20 01:00:00 21.3 0 Calma 7 Noroeste 0 1012.1 0.3 79
2019-09-20 00:00:00 21.6 5 Oeste 15 Oeste 0 1012.4 1.1 80
2019-09-19 23:00:00 22 8 Noroeste 14 Noroeste 0 1012.4 1.1 76
2019-09-19 22:00:00 22 6 Oeste 11 Noroeste 0 1011.8 0.4 72
2019-09-19 21:00:00 22 8 Oeste 16 Oeste 0 1011.3 -0.4 68
2019-09-19 20:00:00 22.7 12 Oeste 18 Oeste 0 1011.3 -0.5 68
2019-09-19 19:00:00 23.7 9 Oeste 22 Oeste 0 1011.4 -0.8 68
2019-09-19 18:00:00 23.2 13 Oeste 22 Noroeste 0 1011.7 -1 69
2019-09-19 17:00:00 22.7 13 Oeste 22 Oeste 0 1011.8 -1.4 71
2019-09-19 16:00:00 23.3 14 Oeste 23 Oeste 0 1012.2 -1.4 71
2019-09-19 15:00:00 23.3 13 Oeste 21 Oeste 0 1012.7 -1.1 67
2019-09-19 14:00:00 24.1 9 Oeste 21 Oeste 0 1013.2 -0.4 67
2019-09-19 13:00:00 23.4 11 Oeste 20 Oeste 0 1013.6 0.4 65
2019-09-19 12:00:00 22.8 9 Oeste 16 Oeste 0 1013.8 1 76
2019-09-19 11:00:00 22 5 Sudoeste 13 Sudoeste 0 1013.6 1.2 82
2019-09-19 10:00:00 20.1 4 Sudeste 13 Sudeste 0 1013.2 0.7 91
2019-09-19 09:00:00 18.7 7 Sudeste 15 Sudeste 0 1012.8 0.5 91
2019-09-19 08:00:00 18.4 6 Sudeste 12 Sudeste 0 1012.4 -0.1 91
2019-09-19 07:00:00 18.7 5 Este 10 Sudeste 0 1012.5 -0.1 90
2019-09-19 06:00:00 19.1 3 Sudeste 7 Sudeste 0 1012.3 -1 89
2019-09-19 05:00:00 19.4 4 Sudeste 8 Sudeste 0 1012.5 -1 87
2019-09-19 04:00:00 19.4 2 Este 6 Sudeste 0 1012.6 -1.1 86
2019-09-19 03:00:00 19.8 3 Sudeste 7 Oeste 0 1013.3 -0.5 86
2019-09-19 02:00:00 20.8 5 Oeste 9 Oeste 0 1013.5 0.1 85
2019-09-19 01:00:00 20.8 6 Oeste 12 Oeste 0 1013.7 0.4 85
2019-09-19 00:00:00 21.1 8 Oeste 15 Oeste 0 1013.8 0.8 82
2019-09-18 23:00:00 21.3 9 Oeste 18 Oeste 0 1013.4 0.7 77
2019-09-18 22:00:00 21.6 9 Oeste 19 Oeste 0 1013.3 0.8 73
2019-09-18 21:00:00 21.4 12 Oeste 22 Oeste 0 1013 0.8 74
2019-09-18 20:00:00 22.3 13 Oeste 25 Oeste 0 1012.7 -0.2 74
2019-09-18 19:00:00 23.1 13 Oeste 25 Oeste 0 1012.5 -0.3 70
2019-09-18 18:00:00 23.3 13 Oeste 24 Oeste 0 1012.2 -1.3 67
2019-09-18 17:00:00 23.3 15 Oeste 26 Oeste 0 1012.9 -0.8 64
2019-09-18 16:00:00 23.5 14 Oeste 22 Oeste 0 1012.8 -1.1 65
2019-09-18 15:00:00 23.1 11 Oeste 24 Noroeste 0 1013.5 -0.3 67
2019-09-18 14:00:00 24.2 12 Oeste 21 Oeste 0 1013.7 0.1 66
2019-09-18 13:00:00 23.3 10 Sudoeste 20 Sudoeste 0 1013.9 0.9 67
2019-09-18 12:00:00 22.7 11 Sudoeste 18 Sudoeste 0 1013.8 1.2 73
2019-09-18 11:00:00 21.9 9 Sudoeste 17 Sudoeste 0 1013.6 1.6 80
2019-09-18 10:00:00 21.1 3 Sudoeste 10 Sudoeste 0 1013 1.5 87
2019-09-18 09:00:00 19.9 0 Calma 8 Sudoeste 0 1012.6 1.1 90
2019-09-18 08:00:00 19.8 2 Sudoeste 7 Sudoeste 0 1012 0.4 90
2019-09-18 07:00:00 20.1 5 Sudoeste 8 Sur 0 1011.5 -0.4 90
2019-09-18 06:00:00 20.2 4 Sur 8 Sudoeste 0 1011.5 -0.6 89
2019-09-18 05:00:00 20 3 Sudoeste 10 Sudeste 0 1011.6 -0.9 88
2019-09-18 04:00:00 20.6 0 Calma 6 Sudoeste 0 1011.9 -0.4 86
2019-09-18 03:00:00 20.8 3 Sudoeste 7 Noroeste 0 1012.1 -0.3 85
2019-09-18 02:00:00 20.9 5 Oeste 12 Oeste 0 1012.5 0.5 85
2019-09-18 01:00:00 21.2 8 Oeste 14 Oeste 0 1012.3 0.9 83
2019-09-18 00:00:00 21.5 9 Oeste 15 Noroeste 0 1012.4 1.7 83
2019-09-17 23:00:00 21.5 9 Oeste 14 Oeste 0 1012 1.3 83
2019-09-17 22:00:00 22 10 Oeste 17 Oeste 0 1011.4 0.6 86
2019-09-17 21:00:00 22.5 11 Oeste 19 Oeste 0 1010.7 -0.2 86
2019-09-15 18:00:00 23.8 12 Oeste 22 Oeste 0 1013.9 -1 75
2019-09-15 17:00:00 24.7 14 Oeste 23 Oeste 0 1014.1 -1.3 68
2019-09-15 16:00:00 24.8 12 Sudoeste 25 Sudoeste 0 1014.5 -1 70
2019-09-15 15:00:00 23.8 12 Sudoeste 23 Oeste 0 1014.9 -0.7 73
2019-09-15 14:00:00 23.8 14 Sudoeste 25 Sudoeste 0 1015.4 0.2 74
2019-09-15 13:00:00 24.2 8 Sudoeste 19 Sudoeste 0 1015.5 0.7 72
2019-09-15 12:00:00 23.2 9 Sudoeste 16 Sudoeste 0 1015.6 1.2 79
2019-09-15 11:00:00 22 5 Sudoeste 9 Sudoeste 0 1015.2 1.1 91
2019-09-15 10:00:00 21.4 3 Sur 8 Sur 0 1014.8 0.8 92
2019-09-15 09:00:00 21.2 0 Calma 6 Sudoeste 0 1014.4 0.7 92
2019-09-15 08:00:00 21.7 0 Calma 7 Sudeste 0 1014.1 0.4 89
2019-09-15 07:00:00 22.5 4 Nordeste 8 Nordeste 0 1014 0.3 86
2019-09-15 06:00:00 23.3 6 Este 12 Este 0 1013.7 -0.3 86
2019-09-15 05:00:00 23.5 4 Este 9 Este 0 1013.7 -0.3 85
2019-09-15 04:00:00 23.4 3 Este 8 Este 0 1013.7 -0.8 85
2019-09-15 03:00:00 23.4 0 Calma 9 Sur 0 1014 -0.6 84
2019-09-15 02:00:00 23.5 4 Sudeste 14 Este 0 1014 -0.6 83
2019-09-15 01:00:00 23.6 6 Este 15 Este 0 1014.5 0.5 83
2019-09-15 00:00:00 23.6 7 Este 14 Este 0 1014.6 1.1 81
2019-09-14 23:00:00 24.1 7 Este 20 Este 0 1014.6 1.5 80
2019-09-14 22:00:00 23.9 2 Este 7 Este 0 1014 1.4 80
2019-09-14 21:00:00 23.7 3 Oeste 15 Sudoeste 0 1013.5 1 80
2019-09-14 20:00:00 25 6 Sudoeste 15 Sudoeste 0 1013.1 0.7 75
2019-09-14 19:00:00 24.2 8 Oeste 21 Oeste 0 1012.6 0.1 78
2019-09-14 18:00:00 25.4 9 Oeste 22 Oeste 0 1012.5 -0.3 72
2019-09-14 17:00:00 25.1 14 Oeste 24 Oeste 0 1012.4 -0.8 74
2019-09-14 16:00:00 25.7 19 Oeste 31 Noroeste 0 1012.5 -1.3 71
2019-09-14 15:00:00 28.2 4 Sudeste 33 Este 0 1012.8 -1.1 55
2019-09-14 14:00:00 30 13 Este 32 Sudeste 0 1013.2 -0.9 53
2019-09-14 13:00:00 27.9 12 Este 30 Este 0 1013.8 -0.2 61
2019-09-14 12:00:00 26.5 16 Este 32 Este 0 1013.9 0.2 65
2019-09-14 11:00:00 25 17 Este 35 Este 0 1014.1 0.8 70
2019-09-14 10:00:00 24.4 15 Este 31 Este 0 1014 1.1 75
2019-09-14 09:00:00 23.2 14 Este 26 Este 0 1013.7 1.1 78
2019-09-14 08:00:00 23.2 12 Este 25 Este 0 1013.3 0.2 78
2019-09-14 07:00:00 23.4 14 Este 25 Este 0 1012.9 -0.5 79
2019-09-14 06:00:00 21.8 10 Este 20 Este 0 1012.6 -1.2 74
2019-09-14 05:00:00 21.2 7 Nordeste 19 Nordeste 0 1013.1 -1.2 73
2019-09-14 04:00:00 21.1 9 Nordeste 17 Nordeste 0 1013.4 -1.4 71
2019-09-14 03:00:00 21.1 8 Nordeste 17 Nordeste 0 1013.8 -1.2 71
2019-09-14 02:00:00 21.1 6 Nordeste 18 Nordeste 0 1014.3 -0.8 70
2019-09-14 01:00:00 21.2 9 Nordeste 26 Este 0 1014.8 0.2 72
2019-09-14 00:00:00 22 11 Nordeste 19 Nordeste 0 1015 0.7 71
2019-09-13 23:00:00 22.6 9 Nordeste 27 Este 0 1015.1 1.3 70
2019-09-13 22:00:00 23.4 12 Este 32 Este 0 1014.6 0.7 66
2019-09-13 21:00:00 23.9 14 Este 25 Este 0 1014.3 0.8 64
2019-09-13 20:00:00 25.3 17 Este 39 Este 0 1013.8 0.1 59
2019-09-13 19:00:00 25.4 14 Este 30 Este 0 1013.9 0.4 58
2019-09-13 18:00:00 26.7 15 Este 32 Este 0 1013.5 0.2 52
2019-09-13 17:00:00 26.5 15 Este 42 Este 0 1013.7 -0.2 50
2019-09-13 16:00:00 28.9 14 Este 38 Sudeste 0 1013.5 -0.7 44
2019-09-13 15:00:00 29 17 Sudeste 36 Sudeste 0 1013.3 -1.7 43
2019-09-13 14:00:00 30.1 16 Este 39 Este 0 1013.9 -1 42
2019-09-13 13:00:00 29.4 15 Este 38 Este 0 1014.2 -0.5 46
2019-09-13 12:00:00 27.9 14 Este 29 Este 0 1015 0.4 52
2019-09-13 11:00:00 23.7 3 Este 17 Nordeste 0 1014.9 0.1 60
2019-09-13 10:00:00 20.9 9 Este 16 Este 0 1014.7 0.9 67
2019-09-13 09:00:00 20.3 8 Este 12 Este 0 1014.6 0.3 68
2019-09-13 08:00:00 19.8 4 Nordeste 12 Este 0 1014.8 0.1 69
2019-09-13 07:00:00 20 8 Este 12 Nordeste 0 1013.8 -1.7 73
2019-09-13 06:00:00 20.3 9 Este 16 Este 0 1014.3 -1.5 72
2019-09-13 05:00:00 20.6 8 Este 23 Este 0 1014.7 -1.5 71
2019-09-13 04:00:00 20.8 12 Este 25 Este 0 1015.5 -0.9 65
2019-09-13 03:00:00 21.2 9 Este 17 Este 0 1015.8 -0.8 59
2019-09-13 02:00:00 21.8 9 Este 27 Este 0 1016.2 -0.7 56
2019-09-13 01:00:00 22.4 8 Este 23 Este 0 1016.4 -0.5 53
2019-09-13 00:00:00 22.7 12 Este 27 Sudeste 0 1016.6 0.6 52
2019-09-12 23:00:00 22.9 7 Este 20 Este 0 1016.9 1.2 50
2019-09-12 22:00:00 23.2 10 Este 27 Sudeste 0 1016.9 1 48
2019-09-12 21:00:00 24.1 12 Este 35 Sudeste 0 1016 0.2 47
2019-09-12 20:00:00 26 17 Este 40 Sudeste 0 1015.7 -0.2 44
2019-09-12 19:00:00 27.5 18 Este 39 Este 0 1015.9 -0.3 42
2019-09-12 18:00:00 27.8 15 Este 38 Este 0 1015.8 -0.7 43
2019-09-12 17:00:00 29.6 15 Este 37 Este 0 1015.9 -1 39
2019-09-12 16:00:00 28.9 9 Sudeste 25 Sudeste 0 1016.2 -1.1 43
2019-09-12 15:00:00 26.4 5 Oeste 21 Sudoeste 0 1016.5 -0.9 52
2019-09-12 14:00:00 25.5 8 Sudoeste 22 Sudoeste 0 1016.9 0 49
2019-09-12 13:00:00 23.7 6 Norte 15 Nordeste 0 1017.3 0.5 54
2019-09-12 12:00:00 23.7 3 Norte 12 Norte 0 1017.4 1 56
2019-09-12 11:00:00 21.9 0 Calma 14 Sudeste 0 1016.9 1.1 59
2019-09-12 10:00:00 21.5 3 Este 12 Este 0 1016.8 0.8 54
2019-09-12 09:00:00 18.8 6 Este 13 Nordeste 0 1016.4 1.2 61
2019-09-12 08:00:00 19.1 3 Nordeste 12 Nordeste 0 1015.8 0.5 60
2019-09-12 07:00:00 19.4 4 Nordeste 14 Este 0 1016 0.7 71
2019-09-12 06:00:00 20 9 Este 22 Este 0 1015.2 -0.1 69
2019-09-12 05:00:00 20.1 11 Este 20 Este 0 1015.3 -0.2 64
2019-09-12 04:00:00 19.8 9 Este 24 Este 0 1015.3 -0.2 60
2019-09-12 03:00:00 20.8 12 Este 27 Este 0 1015.3 -0.3 63
2019-09-12 02:00:00 21.3 6 Nordeste 13 Este 0 1015.5 -0.4 65
2019-09-12 01:00:00 21.5 2 Norte 12 Norte 0 1015.5 0.5 64
2019-09-12 00:00:00 22.2 8 Noroeste 18 Norte 0 1015.6 1.4 64
2019-09-11 23:00:00 22.6 10 Noroeste 22 Noroeste 0 1015.9 2.3 61
2019-09-11 22:00:00 22.8 10 Noroeste 23 Noroeste 0 1015 1.9 61
2019-09-11 21:00:00 22.7 15 Noroeste 27 Oeste 0 1014.2 1 65
2019-09-11 20:00:00 28.7 12 Nordeste 32 Este 0 1013.6 0.5 28
2019-09-11 19:00:00 29 15 Nordeste 46 Este 0 1013.1 -0.7 28
2019-09-11 18:00:00 28.6 14 Nordeste 42 Norte 0 1013.2 -1.1 28
2019-09-11 17:00:00 28.3 17 Nordeste 36 Nordeste 0 1013.1 -1.7 29
2019-09-11 16:00:00 27.1 11 Nordeste 43 Norte 0 1013.8 -1.5 30
2019-09-11 15:00:00 27 14 Nordeste 37 Norte 0 1014.3 -1.4 30
2019-09-11 14:00:00 25.2 10 Nordeste 30 Nordeste 0 1014.8 -1 32
2019-09-11 13:00:00 24.7 14 Nordeste 36 Este 0 1015.3 -0.4 34
2019-09-11 12:00:00 23.9 12 Nordeste 30 Este 0 1015.7 0.5 36
2019-09-11 11:00:00 21.5 13 Nordeste 26 Nordeste 0 1015.8 1.3 43
2019-09-11 10:00:00 18.9 4 Norte 9 Norte 0 1015.7 2.2 89
2019-09-11 09:00:00 17.3 2 Norte 13 Este 0 1015.2 2.7 91
2019-09-11 08:00:00 17 8 Este 17 Este 0 1014.5 1.8 92
2019-09-11 07:00:00 17.6 8 Este 19 Este 0 1013.5 0.2 91
2019-09-11 06:00:00 18.2 0 Calma 13 Sudeste 0 1012.5 -0.8 91
2019-09-11 05:00:00 18.6 7 Este 13 Este 0 1012.7 -0.7 91
2019-09-11 04:00:00 19 7 Este 12 Este 0 1013.3 -0.2 89
2019-09-11 03:00:00 19.5 6 Sudeste 14 Sudeste 0 1013.3 0 87
2019-09-11 02:00:00 19.8 7 Sudeste 14 Sudeste 0 1013.4 0.4 83
2019-09-11 01:00:00 20.1 6 Sudeste 15 Este 0 1013.5 0.8 79
2019-09-11 00:00:00 22.2 2 Este 20 Oeste 0 1013.3 1.2 74
2019-09-10 23:00:00 21.8 13 Oeste 28 Oeste 0 1013 1.2 78
2019-09-10 22:00:00 21.8 18 Oeste 30 Oeste 0 1012.7 0.9 73
2019-09-10 21:00:00 21.7 18 Oeste 37 Oeste 0 1012.1 0 68
2019-09-10 20:00:00 22.5 23 Oeste 40 Oeste 0 1011.8 -0.9 64
2019-09-10 19:00:00 22.9 24 Oeste 38 Oeste 0 1011.8 -0.8 56
2019-09-10 18:00:00 23.3 22 Oeste 38 Oeste 0 1012.1 -1.2 54
2019-09-10 17:00:00 22.8 22 Oeste 38 Oeste 0 1012.7 -1.3 53
2019-09-10 16:00:00 22.6 25 Oeste 40 Oeste 0 1012.6 -1.9 55
2019-09-10 15:00:00 22 24 Oeste 45 Noroeste 0 1013.3 -1 59
2019-09-10 14:00:00 21.5 27 Noroeste 42 Noroeste 0 1014 -0.6 64
2019-09-10 13:00:00 21.3 22 Noroeste 40 Noroeste 0 1014.5 0.3 68
2019-09-10 12:00:00 20.8 24 Noroeste 37 Noroeste 0 1014.3 0.5 71
2019-09-10 11:00:00 20.3 22 Noroeste 39 Noroeste 0 1014.6 1.3 73
2019-09-10 10:00:00 19.6 23 Noroeste 40 Noroeste 0 1014.2 1.1 74
2019-09-10 09:00:00 19 18 Noroeste 36 Noroeste 0 1013.8 0.8 75
2019-09-10 08:00:00 19.1 17 Noroeste 35 Noroeste 0 1013.3 0.1 74
2019-09-10 07:00:00 19.9 19 Noroeste 35 Noroeste 0 1013.1 -0.2 71
2019-09-10 06:00:00 21 15 Noroeste 28 Noroeste 0 1013 -0.7 68
2019-09-10 05:00:00 21.6 14 Noroeste 31 Noroeste 0 1013.2 -0.5 66
2019-09-10 04:00:00 23 16 Noroeste 30 Noroeste 0 1013.3 -0.7 68
2019-09-10 03:00:00 23.8 18 Noroeste 26 Noroeste 0 1013.7 -0.4 65
2019-09-10 02:00:00 23.9 16 Noroeste 24 Noroeste 0 1013.7 -0.3 74
2019-09-10 01:00:00 24.1 10 Noroeste 26 Noroeste 0 1014 0 77
2019-09-10 00:00:00 24.4 17 Noroeste 30 Oeste 0 1014.1 0.7 74
2019-09-09 23:00:00 23.6 17 Oeste 28 Oeste 0 1014 0.9 75
2019-09-09 22:00:00 23.5 12 Oeste 24 Oeste 0 1014 0.9 76
2019-09-09 21:00:00 23.5 12 Oeste 27 Oeste 0 1013.4 0.5 80
2019-09-09 20:00:00 24.2 17 Oeste 30 Oeste 0 1013.1 0 78
2019-09-09 19:00:00 25.7 15 Oeste 26 Oeste 0 1013.1 -0.4 70
2019-09-09 18:00:00 25.7 15 Oeste 28 Oeste 0 1012.9 -1.1 72
2019-09-09 17:00:00 25.6 17 Oeste 29 Oeste 0 1013.1 -1.4 73
2019-09-09 16:00:00 25.9 17 Noroeste 27 Noroeste 0 1013.5 -1.4 74
2019-09-09 15:00:00 25.4 16 Oeste 25 Oeste 0 1014 -1.2 74
2019-09-09 14:00:00 26.1 13 Oeste 20 Oeste 0 1014.5 -0.6 67
2019-09-09 13:00:00 26.4 10 Oeste 16 Noroeste 0 1014.9 0.3 64
2019-09-09 12:00:00 26.3 9 Noroeste 15 Noroeste 0 1015.2 1.1 63
2019-09-09 11:00:00 26.1 4 Nordeste 11 Nordeste 0 1015.1 1.3 66
2019-09-09 10:00:00 24.3 7 Este 15 Este 0 1014.6 1.2 70
2019-09-09 09:00:00 21.4 8 Este 15 Este 0 1014.1 0.7 71
2019-09-09 08:00:00 21.1 7 Este 17 Este 0 1013.8 0 73
2019-09-09 07:00:00 21.6 9 Este 18 Este 0 1013.4 -0.4 67
2019-09-09 06:00:00 21.8 11 Este 18 Este 0 1013.4 -0.7 69
2019-09-09 05:00:00 21.9 10 Este 17 Este 0 1013.8 -0.3 66
2019-09-09 04:00:00 22.3 9 Este 16 Este 0 1013.8 -0.4 66
2019-09-09 03:00:00 22.4 4 Nordeste 12 Este 0 1014.1 0.2 72
2019-09-09 02:00:00 22.7 4 Este 12 Este 0 1014.1 0 72
2019-09-09 01:00:00 23 5 Este 11 Sudeste 0 1014.2 -0.1 71
2019-09-09 00:00:00 23.4 5 Sudeste 13 Sudeste 0 1013.9 1.1 69
2019-09-08 23:00:00 23.9 7 Sudeste 19 Este 0 1014.1 1.3 68
2019-09-08 22:00:00 24.4 12 Este 26 Este 0 1014.3 2.1 66
2019-09-08 21:00:00 25.3 13 Sudeste 28 Sudeste 0 1012.8 0.9 62
2019-09-08 20:00:00 27.5 6 Sudeste 26 Sudeste 0 1012.8 1.2 58
2019-09-08 19:00:00 27.7 8 Sudoeste 27 Sur 0 1012.2 0 62
2019-09-08 18:00:00 28.1 15 Sur 33 Sur 0 1011.9 -0.8 57
2019-09-08 17:00:00 30.2 15 Sudeste 37 Sudeste 0 1011.6 -1.2 49
2019-09-08 16:00:00 31.2 15 Sudeste 34 Sudeste 0 1012.2 -0.4 49
2019-09-08 15:00:00 29.8 14 Sudeste 34 Sudeste 0 1012.7 0.4 53
2019-09-08 14:00:00 28.4 14 Sudeste 36 Sudeste 0 1012.8 0.7 55
2019-09-08 13:00:00 28.5 18 Este 37 Sudeste 0 1012.6 1 54
2019-09-08 12:00:00 28.2 17 Este 37 Sudeste 0 1012.3 0.7 56
2019-09-08 11:00:00 26.8 16 Este 28 Este 0 1012.1 0.7 61
2019-09-08 10:00:00 25.1 12 Este 23 Este 0 1011.6 0.3 67
2019-09-08 09:00:00 23.9 8 Este 19 Nordeste 0 1011.6 0.6 71
2019-09-08 08:00:00 23.1 10 Este 22 Este 0 1011.4 0.8 72
2019-09-08 07:00:00 23.5 14 Este 23 Este 0 1011.3 0.6 71
2019-09-08 06:00:00 23.6 10 Este 22 Este 0 1011 0.1 70
2019-09-08 05:00:00 24.1 13 Este 40 Sudeste 0 1010.6 -0.7 70
2019-09-08 04:00:00 24.3 15 Este 34 Sudeste 0 1010.7 -0.5 68
2019-09-08 03:00:00 24.4 15 Este 37 Sudeste 0 1010.9 -0.6 68
2019-09-08 02:00:00 24.5 17 Este 40 Este 0 1011.3 -0.5 67
2019-09-08 01:00:00 24.6 19 Este 43 Este 0 1011.2 0.3 69
2019-09-08 00:00:00 25 24 Este 52 Sudeste 0 1011.5 1.6 68
2019-09-07 23:00:00 25.1 20 Este 51 Sudeste 0 1011.8 2.1 67
2019-09-07 22:00:00 25.7 16 Sudeste 42 Sudeste 0 1010.9 1.4 61
2019-09-07 21:00:00 27.1 15 Sudeste 44 Sudeste 0 1009.9 0.6 49
2019-09-07 20:00:00 28.7 18 Este 47 Este 0 1009.7 -0.2 44
2019-09-07 19:00:00 29.6 21 Este 53 Sudeste 0 1009.5 -1.1 41
2019-09-07 18:00:00 30.3 22 Este 47 Sudeste 0 1009.3 -1.7 41
2019-09-07 17:00:00 30.5 20 Este 54 Este 0 1009.9 -1.2 43
2019-09-07 16:00:00 30.7 25 Este 59 Este 0 1010.6 -0.4 43
2019-09-07 15:00:00 31.8 24 Este 49 Este 0 1011 -0.2 42
2019-09-07 14:00:00 31 23 Este 57 Sudeste 0 1011.1 0 42
2019-09-07 13:00:00 31.5 23 Este 44 Este 0 1011 0.1 42
2019-09-07 12:00:00 30.2 21 Este 50 Este 0 1011.2 0.2 43
2019-09-07 11:00:00 28.8 20 Este 44 Sudeste 0 1011.1 0.5 46
2019-09-07 10:00:00 26.3 21 Este 40 Este 0 1010.9 0.5 62
2019-09-07 09:00:00 24.6 17 Este 36 Este 0 1011 0.6 71
2019-09-07 08:00:00 24.2 15 Este 39 Este 0 1010.6 -0.1 72
2019-09-07 07:00:00 24.2 18 Este 41 Este 0 1010.4 -0.5 71
2019-09-07 06:00:00 24.2 18 Este 36 Este 0 1010.4 -0.7 71
2019-09-07 05:00:00 24.4 16 Este 35 Sudeste 0 1010.7 -0.4 68
2019-09-07 04:00:00 24.1 16 Este 33 Este 0 1010.9 -0.1 63
2019-09-07 03:00:00 24.3 13 Este 34 Nordeste 0 1011.1 0.4 60
2019-09-07 02:00:00 24.4 14 Este 33 Este 0 1011.1 0.8 59
2019-09-07 01:00:00 24.9 17 Este 37 Este 0 1011 1.1 55
2019-09-07 00:00:00 25.4 19 Este 39 Este 0 1010.7 1.6 50
2019-09-06 23:00:00 26.1 14 Este 33 Sudeste 0 1010.3 1.1 44
2019-09-06 22:00:00 26.8 14 Este 36 Sudeste 0 1009.9 0.5 41
2019-09-06 21:00:00 28.1 17 Este 45 Este 0 1009.1 -0.1 37
2019-09-06 20:00:00 30.5 18 Este 38 Sudeste 0 1009.2 -0.4 34
2019-09-06 19:00:00 31.8 21 Este 41 Este 0 1009.4 -1 33
2019-09-06 18:00:00 32.8 17 Este 41 Sudeste 0 1009.2 -2 34
2019-09-06 17:00:00 33.6 21 Este 40 Sudeste 0 1009.6 -1.8 34
2019-09-06 16:00:00 33.3 21 Este 45 Este 0 1010.4 -1.2 35
2019-09-06 15:00:00 33.4 21 Este 42 Este 0 1011.2 -0.4 36
2019-09-06 14:00:00 32.1 25 Este 48 Este 0 1011.4 -0.2 39
2019-09-06 13:00:00 31.8 23 Este 50 Sudeste 0 1011.6 0.3 43
2019-09-06 12:00:00 30.4 22 Este 41 Este 0 1011.6 0.5 46
2019-09-06 11:00:00 28.8 19 Este 41 Sudeste 0 1011.6 0.6 54
2019-09-06 10:00:00 26.9 18 Este 36 Este 0 1011.3 0.7 62
2019-09-06 09:00:00 24.9 15 Este 37 Este 0 1011.1 0.7 68
2019-09-06 08:00:00 24.4 19 Este 41 Sudeste 0 1011 0.8 71
2019-09-06 07:00:00 24.5 18 Este 42 Sudeste 0 1010.6 0.1 69
2019-09-06 06:00:00 24.7 19 Este 37 Este 0 1010.4 -0.9 63
2019-09-06 05:00:00 24.6 16 Este 39 Sudeste 0 1010.2 -1.1 62
2019-09-06 04:00:00 24.8 16 Este 28 Este 0 1010.5 -0.6 65
2019-09-06 03:00:00 24.8 14 Este 30 Este 0 1011.3 -0.1 59
2019-09-06 02:00:00 25 15 Este 32 Este 0 1011.3 -0.2 54
2019-09-06 01:00:00 24.8 14 Este 33 Este 0 1011.1 0.1 58
2019-09-06 00:00:00 25.2 13 Este 32 Sudeste 0 1011.4 0.6 65
2019-09-05 23:00:00 25.4 14 Este 31 Sudeste 0 1011.5 0.8 65
2019-09-05 22:00:00 24.1 4 Este 11 Este 0 1011 0.4 83
2019-09-05 21:00:00 24.4 5 Oeste 13 Sudoeste 0 1010.8 0 80
2019-09-05 20:00:00 25.6 6 Sudoeste 19 Sudoeste 0 1010.7 -0.3 74
2019-09-05 19:00:00 26.2 9 Sudoeste 21 Sudoeste 0 1010.6 -1 71
2019-09-05 18:00:00 26.8 6 Sudoeste 24 Sudoeste 0 1010.8 -1.2 70
2019-09-05 17:00:00 26.6 11 Sudoeste 27 Sudoeste 0 1011 -1.3 68
2019-09-05 16:00:00 27.3 13 Sudoeste 27 Sudoeste 0 1011.6 -1 65
2019-09-05 15:00:00 27.2 13 Sudoeste 28 Sudoeste 0 1012 -0.6 66
2019-09-05 14:00:00 27.1 12 Sur 25 Sur 0 1012.3 0 68
2019-09-05 13:00:00 27 10 Sur 25 Sur 0 1012.6 0.4 67
2019-09-05 12:00:00 25.9 14 Sur 27 Sur 0 1012.6 0.8 71
2019-09-05 11:00:00 25.6 13 Sur 28 Sur 0 1012.3 0.6 77
2019-09-05 10:00:00 23.6 6 Sur 20 Sur 0 1012.2 1.1 88
2019-09-05 09:00:00 22.7 8 Sur 21 Sur 0 1011.8 1 92
2019-09-05 08:00:00 22.6 9 Sur 26 Sur 0 1011.7 1 92
2019-09-05 07:00:00 22.8 13 Sur 24 Sur 0 1011.1 0.1 88
2019-09-05 06:00:00 23.4 6 Sur 16 Sudeste 0 1010.8 -0.8 71
2019-09-05 05:00:00 23.1 8 Sudeste 14 Este 0 1010.7 -1.5 75
2019-09-05 04:00:00 23.3 2 Nordeste 9 Este 0 1011 -1.4 83
2019-09-05 03:00:00 24.4 3 Nordeste 6 Norte 0 1011.6 -0.9 86
2019-09-05 02:00:00 24.4 2 Norte 8 Norte 0 1012.2 -0.4 85
2019-09-05 01:00:00 25 3 Nordeste 6 Norte 0 1012.4 -0.2 82
2019-09-05 00:00:00 24.8 0 Calma 5 Oeste 0 1012.5 -0.3 82
2019-09-04 23:00:00 24.6 0 Calma 8 Noroeste 0 1012.6 0.1 85
2019-09-04 22:00:00 24.7 3 Oeste 14 Oeste 0 1012.6 0.1 85
2019-09-04 21:00:00 24.8 6 Noroeste 16 Oeste 0 1012.8 0.3 85
2019-09-04 20:00:00 26.3 11 Oeste 21 Sudoeste 0 1012.5 -0.5 75
2019-09-04 19:00:00 26.6 10 Sudoeste 27 Sudoeste 0 1012.5 -0.7 75
2019-09-04 18:00:00 26.5 16 Sudoeste 31 Sudoeste 0 1012.5 -1.4 74
2019-09-04 17:00:00 27.3 18 Oeste 32 Sudoeste 0 1013 -1.1 68
2019-09-04 16:00:00 31.7 10 Sudoeste 20 Oeste 0 1013.2 -1.1 53
2019-09-04 15:00:00 30.1 12 Oeste 22 Oeste 0 1013.9 -0.5 62
2019-09-04 14:00:00 30 14 Oeste 21 Oeste 0 1014.1 -0.2 61
2019-09-04 13:00:00 28.9 13 Oeste 18 Oeste 0 1014.3 0.1 61
2019-09-04 12:00:00 33.3 9 Este 26 Sudeste 0 1014.4 0.4 44
2019-09-04 11:00:00 30.6 15 Este 28 Este 0 1014.3 0.6 49
2019-09-04 10:00:00 27.7 11 Este 20 Este 0 1014.2 1 59
2019-09-04 09:00:00 24.9 9 Este 23 Sudeste 0 1014 0.3 67
2019-09-04 08:00:00 24.2 10 Este 24 Sudeste 0 1013.7 -0.1 70
2019-09-04 07:00:00 23.9 14 Sudeste 24 Sudeste 0 1013.2 -0.8 73
2019-09-04 06:00:00 24.3 9 Este 27 Este 0 1013.7 -0.3 71
2019-09-04 05:00:00 24.3 10 Este 27 Este 0 1013.8 0 75
2019-09-04 04:00:00 24.5 14 Este 32 Este 0 1014 0 77
2019-09-04 03:00:00 24.9 16 Este 40 Sudeste 0 1014 -0.4 74
2019-09-04 02:00:00 25 19 Este 38 Sudeste 0 1013.8 -0.4 75
2019-09-04 01:00:00 25.2 19 Sudeste 36 Este 0 1014 0.3 74
2019-09-04 00:00:00 25.9 12 Este 37 Este 0 1014.4 1 68
2019-09-03 23:00:00 26.3 18 Este 35 Este 0 1014.2 1.2 65
2019-09-03 22:00:00 27.2 16 Este 35 Este 0 1013.7 0.8 59
2019-09-03 21:00:00 28.7 15 Este 33 Sudeste 0 1013.4 0.5 52
2019-09-03 20:00:00 31.7 21 Este 40 Este 0 1013 -0.4 40
2019-09-03 19:00:00 34.2 17 Este 38 Sudeste 0 1012.9 -0.9 37
2019-09-03 18:00:00 35.1 17 Este 36 Este 0 1012.9 -1.4 36
2019-09-03 17:00:00 35.2 17 Este 36 Este 0 1013.4 -1.2 36
2019-09-03 16:00:00 35.1 15 Este 37 Este 0 1013.8 -1.2 36
2019-09-03 15:00:00 35.1 16 Este 43 Este 0 1014.3 -0.7 38
2019-09-03 14:00:00 34.5 18 Este 41 Sudeste 0 1014.6 -0.1 41
2019-09-03 13:00:00 33.9 19 Este 37 Sudeste 0 1015 0.9 44
2019-09-03 12:00:00 31.7 18 Este 40 Este 0 1015 1.3 50
2019-09-03 11:00:00 29.2 14 Este 39 Este 0 1014.7 1.4 60
2019-09-03 10:00:00 27 16 Este 35 Este 0 1014.1 1 69
2019-09-03 09:00:00 25.4 14 Este 33 Este 0 1013.7 0.6 74
2019-09-03 08:00:00 24.8 14 Este 37 Este 0 1013.3 0 74
2019-09-03 07:00:00 24.7 17 Este 31 Este 0 1013.1 -0.3 74
2019-09-03 06:00:00 24.1 9 Este 23 Este 0 1013.1 -0.4 71
2019-09-03 05:00:00 24 10 Este 16 Nordeste 0 1013.3 0.4 68
2019-09-03 04:00:00 24.3 3 Nordeste 13 Nordeste 0 1013.4 0.8 71
2019-09-03 03:00:00 24.8 7 Nordeste 18 Este 0 1013.5 1.3 69
2019-09-03 02:00:00 25.6 12 Nordeste 36 Nordeste 0 1012.9 1 60
2019-09-03 01:00:00 26 21 Este 32 Este 0 1012.6 1 63
2019-09-03 00:00:00 26.3 18 Este 42 Este 0 1012.2 1.4 62
2019-09-02 23:00:00 26.8 19 Este 36 Nordeste 0 1011.9 1.3 59
2019-09-02 22:00:00 27 16 Este 41 Sudeste 0 1011.6 1.5 58
2019-09-02 21:00:00 28.1 20 Este 49 Sudeste 0 1010.8 0.4 54
2019-09-02 20:00:00 30.6 18 Este 36 Sudeste 0 1010.6 -0.2 45
2019-09-02 19:00:00 32.7 18 Sudeste 38 Sudeste 0 1010.1 -0.8 40
2019-09-02 18:00:00 34.4 17 Este 35 Sudeste 0 1010.4 -0.7 37
2019-09-02 17:00:00 28.9 5 Noroeste 18 Sudoeste 0 1010.8 -0.7 56
2019-09-02 16:00:00 29.6 12 Oeste 21 Oeste 0 1010.9 -0.6 52
2019-09-02 15:00:00 30.4 10 Sudoeste 19 Oeste 0 1011.1 -0.2 51
2019-09-02 14:00:00 29 12 Oeste 22 Oeste 0 1011.5 0.4 57
2019-09-02 13:00:00 29.3 8 Sudoeste 21 Este 0 1011.5 0.9 57
2019-09-02 12:00:00 31.5 4 Este 19 Este 0 1011.3 1 41
2019-09-02 11:00:00 26.4 4 Nordeste 9 Este 0 1011.1 0.7 60
2019-09-02 10:00:00 24.6 0 Calma 12 Sur 0 1010.6 0.7 80
2019-09-02 09:00:00 22.7 5 Sur 12 Sur 0 1010.3 1 85
2019-09-02 08:00:00 22.1 3 Sur 17 Sur 0 1010.4 1.4 84
2019-09-02 07:00:00 22.6 8 Sur 18 Sur 0 1009.9 0.7 77
2019-09-02 06:00:00 22.8 4 Sur 9 Este 0 1009.3 -0.4 71
2019-09-02 05:00:00 23.2 6 Este 12 Este 0 1009 -0.7 68
2019-09-02 04:00:00 23.3 5 Este 10 Este 0 1009.2 -0.5 71
2019-09-02 03:00:00 23.7 2 Este 7 Este 0 1009.7 0 75
2019-09-02 02:00:00 24.3 0 Calma 5 Nordeste 0 1009.7 -0.2 74
2019-09-02 01:00:00 24.6 2 Nordeste 5 Norte 0 1009.7 0 73
2019-09-02 00:00:00 25.3 2 Norte 6 Nordeste 0 1009.7 0.7 71
2019-09-01 23:00:00 25.1 2 Nordeste 6 Nordeste 0 1009.9 1.2 70
2019-09-01 22:00:00 24.9 2 Norte 10 Noroeste 0 1009.7 0.8 70
2019-09-01 21:00:00 24.7 8 Noroeste 17 Noroeste 0 1009 0 73
2019-09-01 20:00:00 24.7 11 Noroeste 19 Oeste 0 1008.7 -0.6 85
2019-09-01 19:00:00 25.1 13 Oeste 20 Oeste 0 1008.9 -1 82
2019-09-01 18:00:00 25.3 11 Oeste 22 Oeste 0 1009 -1.4 81
2019-09-01 17:00:00 25.6 11 Oeste 21 Oeste 0 1009.3 -1.4 74
2019-09-01 16:00:00 27.3 10 Sudoeste 23 Oeste 0 1009.9 -1.3 64
2019-09-01 15:00:00 26.2 14 Oeste 23 Sudoeste 0 1010.4 -0.9 71
2019-09-01 14:00:00 25.7 12 Oeste 24 Oeste 0 1010.7 -0.7 76
2019-09-01 13:00:00 24.8 13 Sudoeste 22 Sudoeste 0 1011.2 0.1 78
2019-09-01 12:00:00 25.6 11 Sudoeste 18 Oeste 0 1011.3 0.4 74
2019-09-01 11:00:00 25.3 4 Sur 9 Sur 0 1011.4 0.9 79
2019-09-01 10:00:00 23.3 4 Sudeste 12 Sudeste 0 1011.1 0.8 87
2019-09-01 09:00:00 21.7 5 Sudeste 11 Sudeste 0 1010.9 0.8 91
2019-09-01 08:00:00 21.8 6 Sudeste 18 Sur 0 1010.5 0.2 92
2019-09-01 07:00:00 21.4 5 Sur 16 Sur 0 1010.3 -0.4 91
2019-09-01 06:00:00 22.3 2 Sudeste 9 Sur 0 1010.1 -0.6 91
2019-09-01 05:00:00 22.4 0 Calma 8 Oeste 0 1010.3 -0.7 90
2019-09-01 04:00:00 23 5 Sudoeste 8 Sudoeste 0 1010.7 -0.4 88
2019-09-01 03:00:00 23.2 0 Calma 8 Sudoeste 0 1010.7 -0.5 85
2019-09-01 02:00:00 23.4 3 Sudoeste 6 Sudoeste 0 1011 -0.1 85
2019-09-01 01:00:00 23.4 0 Calma 8 Sur 0 1011.1 0.4 87
2019-09-01 00:00:00 24 2 Sudoeste 12 Sur 0 1011.2 0.8 83
2019-08-31 23:00:00 23.9 0 Calma 9 Sudoeste 0 1011.1 0.9 85
2019-08-31 22:00:00 24.3 5 Oeste 12 Sudoeste 0 1010.7 1 80
2019-08-31 21:00:00 24.6 7 Sudoeste 19 Oeste 0 1010.4 0.8 79
2019-08-31 20:00:00 25.5 12 Oeste 20 Oeste 0 1010.2 0.3 76
2019-08-31 19:00:00 26.9 13 Oeste 25 Oeste 0 1009.7 -0.6 71
2019-08-31 18:00:00 28.3 9 Noroeste 30 Sur 0 1009.6 -1.5 60
2019-08-31 17:00:00 33.5 15 Sur 34 Sur 0 1009.9 -2 39
2019-08-31 16:00:00 34.2 14 Sur 35 Sudoeste 0 1010.3 -2 37
2019-08-31 15:00:00 33.2 17 Sur 32 Sur 0 1011.1 -1.5 42
2019-08-31 14:00:00 31.8 11 Sudoeste 20 Sudoeste 0 1011.9 -0.8 49
2019-08-31 13:00:00 29 9 Oeste 17 Oeste 0 1012.3 0 59
2019-08-31 12:00:00 28.2 6 Oeste 13 Sudoeste 0 1012.6 0.7 61
2019-08-31 11:00:00 26.9 6 Sudoeste 23 Sudeste 0 1012.7 1.1 60
2019-08-31 10:00:00 27.2 12 Este 29 Este 0 1012.3 1.2 60
2019-08-31 09:00:00 24.7 12 Este 26 Este 0 1011.9 0.6 62
2019-08-31 08:00:00 23.8 13 Este 26 Este 0 1011.6 0.3 63
2019-08-31 07:00:00 24.3 14 Este 23 Este 0 1011.1 -0.8 61
2019-08-31 06:00:00 23.9 10 Este 17 Este 0 1011.3 -1 65
2019-08-31 05:00:00 24.3 10 Este 19 Este 0 1011.3 -1.2 66
2019-08-31 04:00:00 24.7 13 Este 26 Este 0 1011.9 -0.7 59
2019-08-31 03:00:00 25.5 13 Este 26 Este 0 1012.3 -0.2 57
2019-08-31 02:00:00 25.5 12 Este 22 Nordeste 0 1012.5 0 56
2019-08-31 01:00:00 25.8 5 Este 19 Sudeste 0 1012.6 0.4 55
2019-08-31 00:00:00 26.5 11 Este 21 Sudeste 0 1012.5 0.6 51
2019-08-30 23:00:00 26.9 6 Este 18 Este 0 1012.5 1 49
2019-08-30 22:00:00 27.9 8 Sudeste 26 Sudeste 0 1012.2 0.6 47
2019-08-30 21:00:00 29.5 5 Este 19 Sudeste 0 1011.9 -0.1 45
2019-08-30 20:00:00 28.5 2 Oeste 12 Noroeste 0 1011.5 -1.2 64
2019-08-30 19:00:00 27.7 8 Oeste 15 Noroeste 0 1011.6 -1.8 64
2019-08-30 18:00:00 27.7 9 Oeste 15 Oeste 0 1012 -1.9 64
2019-08-30 17:00:00 27.7 12 Oeste 16 Oeste 0 1012.7 -1.6 67
2019-08-30 16:00:00 27.2 10 Oeste 15 Oeste 0 1013.4 -1.3 68
2019-08-30 15:00:00 27.2 11 Noroeste 19 Sudoeste 0 1013.9 -1 69
2019-08-30 14:00:00 28.4 11 Oeste 19 Oeste 0 1014.3 -0.3 58
2019-08-30 13:00:00 27.5 9 Oeste 22 Sudoeste 0 1014.7 0.2 57
2019-08-30 12:00:00 28.2 11 Sudoeste 28 Sudeste 0 1014.9 0.4 51
2019-08-30 11:00:00 30.7 13 Este 29 Sudeste 0 1014.6 0.4 45
2019-08-30 10:00:00 27.8 11 Este 22 Este 0 1014.5 0.6 56
2019-08-30 09:00:00 24.3 13 Este 19 Nordeste 0 1014.5 0.6 63
2019-08-30 08:00:00 23.4 10 Este 23 Este 0 1014.2 0.2 62
2019-08-30 07:00:00 23.5 15 Este 26 Nordeste 0 1013.9 -0.3 64
2019-08-30 06:00:00 24.1 12 Este 22 Este 0 1013.9 -0.1 60
2019-08-30 05:00:00 24.3 12 Este 25 Nordeste 0 1014 -0.2 62
2019-08-30 04:00:00 24.7 14 Este 24 Este 0 1014.2 -0.2 62
2019-08-30 03:00:00 25.1 12 Este 25 Este 0 1014 -0.5 56
2019-08-30 02:00:00 25.3 10 Este 26 Sudeste 0 1014.2 0 54
2019-08-30 01:00:00 26 13 Este 29 Sudeste 0 1014.4 0.4 50
2019-08-30 00:00:00 26 10 Sudeste 32 Sudeste 0 1014.5 1 47
2019-08-29 23:00:00 26.7 12 Sudeste 26 Sudeste 0 1014.2 1 44
2019-08-29 22:00:00 27.6 13 Este 30 Sudeste 0 1014 0.8 42
2019-08-29 21:00:00 29.4 11 Este 34 Sudeste 0 1013.5 0.6 38
2019-08-29 20:00:00 32 13 Sudeste 38 Sudeste 0 1013.2 0.1 34
2019-08-29 19:00:00 33.1 18 Sudeste 42 Sudeste 0 1013.2 -0.4 33
2019-08-29 18:00:00 35.3 17 Este 36 Sudeste 0 1012.9 -1.1 32
2019-08-29 17:00:00 34.7 17 Este 36 Sudeste 0 1013.1 -0.8 33
2019-08-29 16:00:00 34.4 13 Este 32 Sudeste 0 1013.6 -0.1 36
2019-08-29 15:00:00 31.6 4 Sudeste 28 Este 0 1014 0.5 48
2019-08-29 14:00:00 34.9 13 Este 31 Este 0 1013.9 0.4 35
2019-08-29 13:00:00 32.9 18 Este 39 Este 0 1013.7 0.8 37
2019-08-29 12:00:00 32.4 20 Este 44 Este 0 1013.5 0.8 37
2019-08-29 11:00:00 31.2 18 Este 32 Este 0 1013.5 1.1 33
2019-08-29 10:00:00 27 11 Este 24 Este 0 1012.9 2.1 43
2019-08-29 09:00:00 24.6 6 Nordeste 18 Este 0 1012.7 0.3 48
2019-08-29 08:00:00 25.3 5 Nordeste 39 Este 0 1012.4 0.4 46
2019-08-29 07:00:00 24.6 18 Este 29 Este 0 1010.8 -1.5 47
2019-08-29 06:00:00 25 12 Este 23 Este 0 1012.4 -0.1 43
2019-08-29 05:00:00 24.8 10 Este 17 Este 0 1012 -0.5 45
2019-08-29 04:00:00 24.5 7 Nordeste 24 Este 0 1012.3 -0.3 46
2019-08-29 03:00:00 25.1 15 Este 28 Este 0 1012.5 0.2 46
2019-08-29 02:00:00 25 11 Este 21 Este 0 1012.5 0.3 47
2019-08-29 01:00:00 25.2 8 Este 15 Este 0 1012.6 0.9 46
2019-08-29 00:00:00 24.8 3 Este 13 Este 0 1012.3 0.9 52
2019-08-28 23:00:00 24.8 2 Este 10 Este 0 1012.2 0.6 61
2019-08-28 22:00:00 25.1 0 Calma 8 Noroeste 0 1011.7 0.5 61
2019-08-28 21:00:00 24.8 5 Noroeste 14 Oeste 0 1011.4 0 71
2019-08-28 20:00:00 25.6 10 Oeste 21 Oeste 0 1011.6 0 68
2019-08-28 19:00:00 26.3 11 Oeste 22 Oeste 0 1011.2 -0.8 66
2019-08-28 18:00:00 27.1 14 Oeste 21 Oeste 0 1011.4 -0.8 63
2019-08-28 17:00:00 26.1 14 Oeste 24 Sudoeste 0 1011.6 -1.1 71
2019-08-28 16:00:00 26.5 17 Oeste 24 Oeste 0 1012 -1.1 68
2019-08-28 15:00:00 27.3 11 Oeste 19 Oeste 0 1012.2 -0.9 61
2019-08-28 14:00:00 26.9 13 Oeste 18 Oeste 0 1012.7 -0.2 61
2019-08-28 13:00:00 26 11 Oeste 17 Oeste 0 1013.1 0.5 64
2019-08-28 12:00:00 26.6 8 Noroeste 19 Sudeste 0 1013.1 0.6 55
2019-08-28 11:00:00 28.4 6 Sudeste 17 Sur 0 1012.9 0.6 53
2019-08-28 10:00:00 25.2 9 Este 17 Este 0 1012.6 0.5 64
2019-08-28 09:00:00 22.2 4 Este 14 Este 0 1012.5 0.7 72
2019-08-28 08:00:00 21 8 Este 13 Este 0 1012.3 0.7 79
2019-08-28 07:00:00 20.4 3 Noroeste 14 Este 0 1012.1 0.2 80
2019-08-28 06:00:00 20.8 0 Calma 14 Sudeste 0 1011.8 -0.6 79
2019-08-28 05:00:00 20.8 8 Este 18 Este 0 1011.6 -1.5 78
2019-08-28 04:00:00 21.3 9 Este 14 Este 0 1011.9 -1.3 75
2019-08-28 03:00:00 21.3 5 Nordeste 12 Este 0 1012.4 -0.9 80
2019-08-28 02:00:00 21.1 6 Nordeste 14 Nordeste 0 1013.1 0.3 87
2019-08-28 01:00:00 21.4 4 Nordeste 11 Norte 0 1013.2 0.8 89
2019-08-28 00:00:00 21.5 0 Calma 14 Noroeste 0 1013.3 1.3 89
2019-08-27 23:00:00 21.7 10 Noroeste 16 Norte 0 1012.8 0.8 87
2019-08-27 22:00:00 21.9 10 Noroeste 16 Noroeste 0 1012.4 0.3 86
2019-08-27 21:00:00 22.4 9 Oeste 16 Oeste 0 1012 -0.3 80
2019-08-27 20:00:00 23.5 10 Oeste 21 Oeste 0 1012 -0.7 74
2019-08-27 19:00:00 24.2 14 Oeste 26 Oeste 0 1012.1 -0.8 69
2019-08-27 18:00:00 24.2 12 Oeste 26 Oeste 0 1012.3 -0.9 68
2019-08-27 17:00:00 24.7 16 Oeste 28 Sudoeste 0 1012.7 -1 66
2019-08-27 16:00:00 25 14 Sudoeste 26 Oeste 0 1012.9 -1.3 65
2019-08-27 15:00:00 24.4 14 Oeste 25 Oeste 0 1013.2 -0.9 64
2019-08-27 14:00:00 24.5 14 Sudoeste 29 Oeste 0 1013.7 -0.3 64
2019-08-27 13:00:00 24 10 Sudoeste 22 Sudoeste 0 1014.2 0.7 65
2019-08-27 12:00:00 24.5 9 Sur 22 Sudeste 0 1014.1 1 64
2019-08-27 11:00:00 24 5 Sur 15 Sur 0 1014 1.7 67
2019-08-27 10:00:00 22.7 5 Sur 15 Sur 0 1013.5 1.6 73
2019-08-27 09:00:00 20.8 3 Sur 8 Sur 0 1013.1 1.3 80
2019-08-27 08:00:00 20.7 3 Sudeste 14 Sur 0 1012.3 0.8 78
2019-08-27 07:00:00 21.1 5 Sudoeste 12 Sur 0 1011.9 0.2 76
2019-08-27 06:00:00 20.9 5 Sudoeste 13 Sudoeste 0 1011.8 -0.3 82
2019-08-27 05:00:00 21.2 8 Sudoeste 19 Sudoeste 0 1011.5 -0.8 85
2019-08-27 04:00:00 21.2 9 Sudoeste 16 Sudoeste 0 1011.7 0 89
2019-08-27 03:00:00 21.2 9 Sur 17 Sur 0 1012.1 0 90
2019-08-27 02:00:00 20.7 6 Sur 21 Sur 0 1012.3 0.2 89
2019-08-27 01:00:00 20.7 8 Sur 18 Sur 0 1011.7 0.4 86
2019-08-27 00:00:00 21.1 6 Sudeste 14 Sudeste 0 1012.1 1.4 85
2019-08-26 23:00:00 21.6 5 Sudeste 12 Sudeste 0 1012.1 2.2 84
2019-08-26 22:00:00 21.7 5 Sudoeste 18 Oeste 0 1011.3 1.6 82
2019-08-26 21:00:00 22.1 11 Oeste 28 Sudoeste 0 1010.7 0.9 79
2019-08-26 20:00:00 23.2 17 Sudoeste 28 Sudoeste 0 1009.9 -0.3 73
2019-08-26 19:00:00 24.1 16 Sudoeste 28 Sudoeste 0 1009.7 -0.8 67
2019-08-26 18:00:00 24.7 14 Sudoeste 28 Sudoeste 0 1009.8 -0.8 65
2019-08-26 17:00:00 24.6 13 Sudoeste 29 Sudoeste 0 1010.2 -0.4 65
2019-08-26 16:00:00 24.4 15 Sudoeste 30 Sudoeste 0 1010.5 -0.5 68
2019-08-26 15:00:00 24.8 12 Sudoeste 26 Sudoeste 0 1010.6 -0.2 65
2019-08-26 14:00:00 24.8 10 Sudoeste 28 Sur 0 1010.6 0.1 67
2019-08-26 13:00:00 23.9 12 Sudoeste 24 Sudoeste 0 1011 1.4 76
2019-08-26 12:00:00 23.6 11 Sudoeste 24 Sudoeste 0 1010.8 1.5 83
2019-08-26 11:00:00 23.1 6 Sudoeste 26 Sur 0 1010.5 1.5 87
2019-08-26 10:00:00 23.5 13 Sur 27 Sur 0 1009.6 1.4 86
2019-08-26 09:00:00 23.2 10 Sur 30 Sur 0 1009.3 1.1 86
2019-08-26 08:00:00 23.2 13 Sur 35 Sur 0 1009 0.8 83
2019-08-26 07:00:00 24.2 6 Sudeste 21 Sudeste 0 1008.2 -0.3 76
2019-08-26 06:00:00 24.3 12 Este 28 Sudeste 0 1008.2 -1 77
2019-08-26 05:00:00 24.1 12 Sudeste 24 Sudeste 0 1008.2 -1.1 77
2019-08-26 04:00:00 24.1 11 Este 21 Sudeste 0 1008.5 -1.1 75
2019-08-26 03:00:00 24.4 7 Sudeste 22 Sudeste 0 1009.2 -0.4 73
2019-08-26 02:00:00 24.9 11 Sudeste 26 Sudeste 0 1009.3 -0.1 71
2019-08-26 01:00:00 25 7 Sudeste 20 Sudeste 0 1009.6 0.8 71
2019-08-26 00:00:00 24.3 3 Oeste 12 Oeste 0 1009.6 1.3 76
2019-08-25 23:00:00 24.6 3 Sudoeste 19 Sur 0 1009.4 1.1 73
2019-08-25 22:00:00 26.5 9 Sudeste 33 Sudeste 0 1008.8 0.6 53
2019-08-25 21:00:00 27.7 13 Sudeste 32 Sudeste 0 1008.3 -1 43
2019-08-25 20:00:00 29.3 13 Este 37 Sudeste 0 1008.3 -0.1 43
2019-08-25 19:00:00 29.8 17 Este 43 Sudeste 0 1008.2 -1 41
2019-08-25 18:00:00 31.3 13 Sudeste 37 Este 0 1009.3 -0.6 38
2019-08-25 17:00:00 33.5 20 Este 40 Sudeste 0 1008.4 -2 37
2019-08-25 16:00:00 34.4 18 Este 40 Sudeste 0 1009.2 -1.7 36
2019-08-25 15:00:00 32.7 19 Sudeste 39 Sudeste 0 1009.9 -1.6 37
2019-08-25 14:00:00 33 17 Este 39 Este 0 1010.4 -1.3 40
2019-08-25 13:00:00 32.1 21 Este 45 Este 0 1010.9 -0.7 43
2019-08-25 12:00:00 31.1 19 Este 37 Este 0 1011.5 -0.1 47
2019-08-25 11:00:00 28.9 16 Este 40 Este 0 1011.7 0.3 56
2019-08-25 10:00:00 26.8 18 Este 45 Este 0 1011.6 0.3 65
2019-08-25 09:00:00 24.2 16 Este 29 Nordeste 0 1011.6 0.4 75
2019-08-25 08:00:00 22.9 16 Este 27 Este 0 1011.4 0.1 77
2019-08-25 07:00:00 22.9 10 Este 21 Este 0 1011.3 -0.4 71
2019-08-25 06:00:00 22.9 9 Este 19 Este 0 1011.2 -0.6 65
2019-08-25 05:00:00 23.3 14 Este 24 Este 0 1011.3 -0.8 60
2019-08-25 04:00:00 23 8 Este 14 Nordeste 0 1011.7 -0.5 54
2019-08-25 03:00:00 23.8 10 Este 18 Este 0 1011.8 -0.4 59
2019-08-25 02:00:00 24.3 11 Este 29 Este 0 1012.1 0.1 56
2019-08-25 01:00:00 24.7 16 Este 31 Este 0 1012.2 0.9 56
2019-08-25 00:00:00 25.3 13 Este 37 Este 0 1012.2 1.2 54
2019-08-24 23:00:00 25.7 18 Este 40 Este 0 1012 1 58
2019-08-24 22:00:00 26.4 18 Este 36 Sudeste 0 1011.3 0.7 53
2019-08-24 21:00:00 28.6 19 Este 36 Este 0 1011 0.2 42
2019-08-24 20:00:00 31.8 7 Este 30 Sudeste 0 1011 0 34
2019-08-24 19:00:00 32.7 17 Este 45 Sudeste 0 1010.6 -1 32
2019-08-24 18:00:00 33.9 20 Este 40 Este 0 1010.8 -1.2 34
2019-08-24 17:00:00 34.2 23 Este 45 Sudeste 0 1011 -1.4 32
2019-08-24 16:00:00 34.6 19 Este 45 Este 0 1011.6 -1.1 34
2019-08-24 15:00:00 33.7 19 Este 42 Este 0 1012 -0.8 36
2019-08-24 14:00:00 33.4 22 Este 43 Sudeste 0 1012.4 -0.4 39
2019-08-24 13:00:00 32.4 21 Este 43 Este 0 1012.7 0.2 40
2019-08-24 12:00:00 31.7 20 Este 43 Sudeste 0 1012.8 0.5 42
2019-08-24 11:00:00 30 17 Este 33 Este 0 1012.8 0.8 46
2019-08-24 10:00:00 27.7 17 Este 33 Este 0 1012.5 0.8 52
2019-08-24 09:00:00 25 11 Este 23 Este 0 1012.3 0.7 54
2019-08-24 08:00:00 24.3 10 Este 24 Este 0 1012 0.3 47
2019-08-24 07:00:00 24.6 14 Este 26 Este 0 1011.7 -0.2 42
2019-08-24 06:00:00 25.3 14 Este 27 Este 0 1011.6 -0.6 39
2019-08-24 05:00:00 24.9 11 Este 33 Este 0 1011.7 -0.3 38
2019-08-24 04:00:00 25.2 16 Este 31 Este 0 1011.9 0.3 41
2019-08-24 03:00:00 25.2 18 Este 35 Este 0 1012.2 1 44
2019-08-24 02:00:00 25.4 17 Este 40 Este 0 1012 1.1 48
2019-08-24 01:00:00 25.5 22 Este 43 Sudeste 0 1011.6 1.2 53
2019-08-24 00:00:00 25.6 23 Este 45 Sudeste 0 1011.2 1.3 52
2019-08-23 23:00:00 25.8 23 Este 45 Este 0 1010.9 1.3 53
2019-08-23 22:00:00 26.2 23 Este 45 Este 0 1010.4 0.5 53
2019-08-23 21:00:00 27.4 24 Este 57 Este 0 1009.9 -0.2 49
2019-08-23 20:00:00 29.5 27 Este 60 Este 0 1009.6 -0.9 43
2019-08-23 19:00:00 31.6 27 Este 53 Este 0 1009.9 -1 40
2019-08-23 18:00:00 31.9 28 Este 54 Este 0 1010.1 -1.4 40
2019-08-23 17:00:00 33.1 27 Este 51 Este 0 1010.5 -1.3 39
2019-08-23 16:00:00 33 26 Este 60 Este 0 1010.9 -0.9 39
2019-08-23 15:00:00 33.1 28 Este 61 Este 0 1011.5 -0.3 40
2019-08-23 14:00:00 32.5 30 Este 59 Este 0 1011.8 -0.1 41
2019-08-23 13:00:00 31.7 26 Este 62 Este 0 1011.8 0 44
2019-08-23 12:00:00 30.6 26 Este 57 Este 0 1011.8 0.2 48
2019-08-23 11:00:00 29 23 Este 49 Sudeste 0 1011.9 0.6 52
2019-08-23 10:00:00 27.5 22 Este 50 Sudeste 0 1011.8 1 58
2019-08-23 09:00:00 25.2 17 Este 44 Este 0 1011.6 0.9 64
2019-08-23 08:00:00 24.3 16 Este 38 Este 0 1011.3 0.7 65
2019-08-23 07:00:00 24.4 17 Este 43 Nordeste 0 1010.8 0.3 65
2019-08-23 06:00:00 24.5 18 Este 46 Este 0 1010.7 0.4 62
2019-08-23 05:00:00 24.9 22 Este 45 Este 0 1010.6 0.2 57
2019-08-23 04:00:00 25.3 20 Este 47 Sudeste 0 1010.5 -0.1 51
2019-08-23 03:00:00 25.4 23 Este 46 Sudeste 0 1010.3 -0.5 53
2019-08-23 02:00:00 25.7 23 Este 52 Nordeste 0 1010.4 -0.5 54
2019-08-23 01:00:00 25.9 22 Este 55 Este 0 1010.6 0.2 56
2019-08-23 00:00:00 26 24 Este 54 Sudeste 0 1010.8 0.6 58